createdAt,value
2019-02-12T00:00:49.910Z,1015.47
2019-02-12T00:01:49.872Z,1015.41
2019-02-12T00:02:49.889Z,1015.42
2019-02-12T00:03:49.857Z,1015.43
2019-02-12T00:04:49.848Z,1015.50
2019-02-12T00:05:49.837Z,1015.46
2019-02-12T00:06:49.820Z,1015.40
2019-02-12T00:07:49.834Z,1015.54
2019-02-12T00:08:49.804Z,1015.48
2019-02-12T00:09:49.793Z,1015.52
2019-02-12T00:10:49.781Z,1015.50
2019-02-12T00:11:49.767Z,1015.57
2019-02-12T00:12:49.783Z,1015.52
2019-02-12T00:13:49.748Z,1015.57
2019-02-12T00:14:49.746Z,1015.56
2019-02-12T00:15:49.735Z,1015.54
2019-02-12T00:16:49.719Z,1015.55
2019-02-12T00:17:49.731Z,1015.56
2019-02-12T00:18:49.701Z,1015.51
2019-02-12T00:19:49.686Z,1015.52
2019-02-12T00:20:49.674Z,1015.57
2019-02-12T00:21:49.663Z,1015.55
2019-02-12T00:22:49.692Z,1015.54
2019-02-12T00:23:49.648Z,1015.50
2019-02-12T00:24:49.632Z,1015.55
2019-02-12T00:25:49.622Z,1015.51
2019-02-12T00:26:49.619Z,1015.40
2019-02-12T00:27:49.627Z,1015.45
2019-02-12T00:28:49.607Z,1015.50
2019-02-12T00:29:49.594Z,1015.53
2019-02-12T00:30:49.569Z,1015.48
2019-02-12T00:31:49.557Z,1015.44
2019-02-12T00:32:49.572Z,1015.43
2019-02-12T00:33:49.537Z,1015.41
2019-02-12T00:34:49.536Z,1015.41
2019-02-12T00:35:49.521Z,1015.41
2019-02-12T00:36:49.510Z,1015.43
2019-02-12T00:37:49.546Z,1015.46
2019-02-12T00:38:49.488Z,1015.44
2019-02-12T00:39:49.475Z,1015.47
2019-02-12T00:40:49.474Z,1015.42
2019-02-12T00:41:49.458Z,1015.47
2019-02-12T00:42:49.441Z,1015.51
2019-02-12T00:43:49.460Z,1015.52
2019-02-12T00:44:49.427Z,1015.52
2019-02-12T00:45:49.450Z,1015.59
2019-02-12T00:46:49.407Z,1015.62
2019-02-12T00:47:49.396Z,1015.74
2019-02-12T00:48:49.386Z,1015.73
2019-02-12T00:49:49.377Z,1015.59
2019-02-12T00:50:49.359Z,1015.55
2019-02-12T00:51:49.371Z,1015.59
2019-02-12T00:52:49.338Z,1015.67
2019-02-12T00:53:49.332Z,1015.55
2019-02-12T00:54:49.325Z,1015.47
2019-02-12T00:55:49.334Z,1015.52
2019-02-12T00:56:49.296Z,1015.60
2019-02-12T00:57:49.282Z,1015.57
2019-02-12T00:58:49.280Z,1015.50
2019-02-12T00:59:49.293Z,1015.51
2019-02-12T01:00:49.283Z,1015.50
2019-02-12T01:01:49.249Z,1015.50
2019-02-12T01:02:49.233Z,1015.50
2019-02-12T01:03:49.223Z,1015.54
2019-02-12T01:04:49.214Z,1015.47
2019-02-12T01:05:49.223Z,1015.51
2019-02-12T01:06:49.193Z,1015.48
2019-02-12T01:07:49.183Z,1015.51
2019-02-12T01:08:49.173Z,1015.43
2019-02-12T01:09:49.163Z,1015.54
2019-02-12T01:10:49.173Z,1015.56
2019-02-12T01:11:49.134Z,1015.58
2019-02-12T01:12:49.132Z,1015.60
2019-02-12T01:13:49.138Z,1015.60
2019-02-12T01:14:49.107Z,1015.63
2019-02-12T01:15:49.122Z,1015.61
2019-02-12T01:16:49.081Z,1015.59
2019-02-12T01:17:49.073Z,1015.64
2019-02-12T01:18:49.069Z,1015.74
2019-02-12T01:19:49.059Z,1015.63
2019-02-12T01:20:49.078Z,1015.79
2019-02-12T01:21:49.036Z,1015.79
2019-02-12T01:22:49.020Z,1015.80
2019-02-12T01:23:49.011Z,1015.83
2019-02-12T01:24:48.999Z,1015.91
2019-02-12T01:25:48.987Z,1015.86
2019-02-12T01:26:49.004Z,1015.86
2019-02-12T01:27:48.974Z,1015.91
2019-02-12T01:28:48.956Z,1015.80
2019-02-12T01:29:48.946Z,1015.79
2019-02-12T01:30:48.961Z,1015.88
2019-02-12T01:31:48.955Z,1015.82
2019-02-12T01:32:48.923Z,1015.94
2019-02-12T01:33:48.906Z,1015.99
2019-02-12T01:34:48.892Z,1015.99
2019-02-12T01:35:48.881Z,1015.94
2019-02-12T01:36:48.893Z,1015.96
2019-02-12T01:37:48.864Z,1016.03
2019-02-12T01:38:48.861Z,1016.04
2019-02-12T01:39:48.848Z,1016.09
2019-02-12T01:40:48.833Z,1016.14
2019-02-12T01:41:48.849Z,1016.11
2019-02-12T01:42:48.806Z,1016.07
2019-02-12T01:43:48.829Z,1016.15
2019-02-12T01:44:48.826Z,1016.08
2019-02-12T01:45:48.789Z,1016.18
2019-02-12T01:46:48.762Z,1016.14
2019-02-12T01:47:48.752Z,1016.23
2019-02-12T01:48:48.898Z,1016.22
2019-02-12T01:49:48.766Z,1016.24
2019-02-12T01:50:48.773Z,1016.19
2019-02-12T01:51:49.270Z,1016.20
2019-02-12T01:52:48.713Z,1016.17
2019-02-12T01:53:48.696Z,1016.20
2019-02-12T01:54:48.709Z,1016.16
2019-02-12T01:55:48.672Z,1016.21
2019-02-12T01:56:48.663Z,1016.22
2019-02-12T01:57:48.650Z,1016.14
2019-02-12T01:58:48.681Z,1016.26
2019-02-12T01:59:48.634Z,1016.27
2019-02-12T02:00:48.616Z,1016.23
2019-02-12T02:01:48.632Z,1016.28
2019-02-12T02:02:48.606Z,1016.28
2019-02-12T02:03:48.596Z,1016.24
2019-02-12T02:04:48.637Z,1016.32
2019-02-12T02:05:48.574Z,1016.31
2019-02-12T02:07:02.428Z,1016.33
2019-02-12T02:07:48.543Z,1016.27
2019-02-12T02:08:48.536Z,1016.30
2019-02-12T02:09:48.605Z,1016.30
2019-02-12T02:10:48.517Z,1016.32
2019-02-12T02:11:48.538Z,1016.33
2019-02-12T02:12:48.497Z,1016.35
2019-02-12T02:13:48.487Z,1016.39
2019-02-12T02:14:48.475Z,1016.43
2019-02-12T02:15:48.477Z,1016.30
2019-02-12T02:16:48.460Z,1016.37
2019-02-12T02:17:48.468Z,1016.30
2019-02-12T02:18:48.499Z,1016.16
2019-02-12T02:19:48.416Z,1016.23
2019-02-12T02:20:48.413Z,1016.21
2019-02-12T02:21:48.401Z,1016.26
2019-02-12T02:22:48.393Z,1016.34
2019-02-12T02:23:48.406Z,1016.29
2019-02-12T02:24:48.364Z,1016.39
2019-02-12T02:25:48.352Z,1016.34
2019-02-12T02:26:48.365Z,1016.34
2019-02-12T02:27:48.330Z,1016.41
2019-02-12T02:28:48.351Z,1016.40
2019-02-12T02:29:48.317Z,1016.47
2019-02-12T02:30:48.302Z,1016.40
2019-02-12T02:31:48.289Z,1016.50
2019-02-12T02:32:48.284Z,1016.59
2019-02-12T02:33:48.310Z,1016.52
2019-02-12T02:34:48.263Z,1016.48
2019-02-12T02:35:48.254Z,1016.50
2019-02-12T02:36:48.244Z,1016.52
2019-02-12T02:37:48.226Z,1016.54
2019-02-12T02:38:48.233Z,1016.49
2019-02-12T02:39:48.228Z,1016.48
2019-02-12T02:40:48.200Z,1016.58
2019-02-12T02:41:48.194Z,1016.53
2019-02-12T02:42:48.183Z,1016.59
2019-02-12T02:43:48.168Z,1016.56
2019-02-12T02:44:48.174Z,1016.52
2019-02-12T02:45:48.144Z,1016.48
2019-02-12T02:46:48.138Z,1016.45
2019-02-12T02:47:48.128Z,1016.54
2019-02-12T02:48:48.132Z,1016.59
2019-02-12T02:49:48.133Z,1016.58
2019-02-12T02:50:48.091Z,1016.58
2019-02-12T02:51:53.963Z,1016.60
2019-02-12T02:52:49.073Z,1016.51
2019-02-12T02:53:48.064Z,1016.60
2019-02-12T02:54:48.054Z,1016.65
2019-02-12T02:55:48.082Z,1016.58
2019-02-12T02:56:48.021Z,1016.61
2019-02-12T02:57:48.016Z,1016.72
2019-02-12T02:58:48.049Z,1016.64
2019-02-12T02:59:47.993Z,1016.71
2019-02-12T03:00:48.016Z,1016.69
2019-02-12T03:01:47.977Z,1016.64
2019-02-12T03:02:47.961Z,1016.78
2019-02-12T03:03:47.964Z,1016.79
2019-02-12T03:04:47.947Z,1016.79
2019-02-12T03:05:47.937Z,1016.56
2019-02-12T03:06:47.950Z,1016.62
2019-02-12T03:07:47.918Z,1016.67
2019-02-12T03:08:47.934Z,1016.61
2019-02-12T03:09:47.887Z,1016.65
2019-02-12T03:10:47.893Z,1016.66
2019-02-12T03:11:47.899Z,1016.57
2019-02-12T03:12:47.864Z,1016.66
2019-02-12T03:13:47.851Z,1016.59
2019-02-12T03:14:47.843Z,1016.71
2019-02-12T03:15:47.834Z,1016.72
2019-02-12T03:16:47.812Z,1016.71
2019-02-12T03:17:47.832Z,1016.68
2019-02-12T03:18:47.800Z,1016.65
2019-02-12T03:19:47.843Z,1016.67
2019-02-12T03:20:47.773Z,1016.68
2019-02-12T03:21:47.782Z,1016.65
2019-02-12T03:22:47.750Z,1016.69
2019-02-12T03:23:47.743Z,1016.71
2019-02-12T03:24:47.737Z,1016.81
2019-02-12T03:25:47.731Z,1016.85
2019-02-12T03:26:47.746Z,1016.82
2019-02-12T03:27:47.726Z,1016.86
2019-02-12T03:28:47.693Z,1016.95
2019-02-12T03:29:47.678Z,1016.86
2019-02-12T03:30:47.677Z,1016.96
2019-02-12T03:31:47.659Z,1016.99
2019-02-12T03:32:47.693Z,1017.00
2019-02-12T03:33:47.642Z,1017.03
2019-02-12T03:34:47.630Z,1017.07
2019-02-12T03:35:47.613Z,1017.03
2019-02-12T03:36:47.607Z,1017.05
2019-02-12T03:37:47.600Z,1017.07
2019-02-12T03:38:47.611Z,1017.07
2019-02-12T03:39:47.577Z,1017.04
2019-02-12T03:40:47.563Z,1017.06
2019-02-12T03:41:47.565Z,1017.14
2019-02-12T03:42:47.544Z,1017.01
2019-02-12T03:43:47.554Z,1017.14
2019-02-12T03:44:47.543Z,1017.08
2019-02-12T03:45:47.514Z,1017.07
2019-02-12T03:46:47.505Z,1017.06
2019-02-12T03:47:47.489Z,1017.06
2019-02-12T03:48:47.506Z,1017.03
2019-02-12T03:49:47.464Z,1017.05
2019-02-12T03:50:47.458Z,1017.01
2019-02-12T03:51:47.449Z,1017.09
2019-02-12T03:52:47.441Z,1017.13
2019-02-12T03:53:47.422Z,1017.08
2019-02-12T03:54:47.433Z,1017.16
2019-02-12T03:55:47.400Z,1017.16
2019-02-12T03:56:47.398Z,1017.21
2019-02-12T03:57:47.382Z,1017.17
2019-02-12T03:58:47.376Z,1017.23
2019-02-12T03:59:47.390Z,1017.26
2019-02-12T04:00:47.358Z,1017.25
2019-02-12T04:01:47.416Z,1017.25
2019-02-12T04:02:47.333Z,1017.23
2019-02-12T04:03:47.321Z,1017.17
2019-02-12T04:04:47.328Z,1017.18
2019-02-12T04:05:47.305Z,1017.21
2019-02-12T04:06:47.290Z,1017.15
2019-02-12T04:07:47.286Z,1017.16
2019-02-12T04:08:47.262Z,1017.11
2019-02-12T04:09:47.305Z,1017.18
2019-02-12T04:10:47.261Z,1017.05
2019-02-12T04:11:47.231Z,1017.10
2019-02-12T04:12:47.232Z,1017.05
2019-02-12T04:13:47.214Z,1017.11
2019-02-12T04:14:47.204Z,1017.00
2019-02-12T04:15:47.219Z,1017.02
2019-02-12T04:16:47.187Z,1017.00
2019-02-12T04:17:47.166Z,1016.97
2019-02-12T04:18:47.158Z,1016.93
2019-02-12T04:19:47.145Z,1016.96
2019-02-12T04:20:47.162Z,1017.05
2019-02-12T04:21:47.159Z,1017.03
2019-02-12T04:22:47.135Z,1017.05
2019-02-12T04:23:47.114Z,1017.00
2019-02-12T04:24:47.101Z,1016.98
2019-02-12T04:25:47.114Z,1016.96
2019-02-12T04:26:47.079Z,1016.98
2019-02-12T04:27:47.069Z,1017.06
2019-02-12T04:28:47.052Z,1016.97
2019-02-12T04:29:47.039Z,1017.02
2019-02-12T04:30:47.058Z,1016.89
2019-02-12T04:31:47.022Z,1016.85
2019-02-12T04:32:47.042Z,1017.05
2019-02-12T04:33:47.003Z,1016.88
2019-02-12T04:34:46.995Z,1017.00
2019-02-12T04:35:46.992Z,1017.01
2019-02-12T04:36:46.966Z,1016.97
2019-02-12T04:37:46.957Z,1017.02
2019-02-12T04:38:46.970Z,1017.13
2019-02-12T04:39:46.940Z,1017.08
2019-02-12T04:40:46.923Z,1017.10
2019-02-12T04:41:46.936Z,1017.13
2019-02-12T04:42:46.902Z,1017.17
2019-02-12T04:43:46.926Z,1017.29
2019-02-12T04:44:46.889Z,1017.26
2019-02-12T04:45:46.878Z,1017.34
2019-02-12T04:46:46.865Z,1017.34
2019-02-12T04:47:46.892Z,1017.40
2019-02-12T04:48:46.839Z,1017.33
2019-02-12T04:49:46.827Z,1017.31
2019-02-12T04:50:46.819Z,1017.28
2019-02-12T04:51:46.806Z,1017.26
2019-02-12T04:52:46.804Z,1017.27
2019-02-12T04:53:46.857Z,1017.26
2019-02-12T04:54:46.776Z,1017.25
2019-02-12T04:55:46.766Z,1017.22
2019-02-12T04:56:46.761Z,1017.22
2019-02-12T04:57:46.771Z,1017.24
2019-02-12T04:58:46.738Z,1017.13
2019-02-12T04:59:46.731Z,1017.25
2019-02-12T05:00:46.715Z,1017.26
2019-02-12T05:01:46.705Z,1017.27
2019-02-12T05:02:46.716Z,1017.30
2019-02-12T05:03:46.705Z,1017.22
2019-02-12T05:04:46.675Z,1017.32
2019-02-12T05:05:46.667Z,1017.28
2019-02-12T05:06:46.654Z,1017.25
2019-02-12T05:07:46.644Z,1017.27
2019-02-12T05:08:46.658Z,1017.19
2019-02-12T05:09:46.619Z,1017.24
2019-02-12T05:10:46.614Z,1017.29
2019-02-12T05:11:46.602Z,1017.35
2019-02-12T05:12:46.586Z,1017.23
2019-02-12T05:13:46.596Z,1017.30
2019-02-12T05:14:46.564Z,1017.43
2019-02-12T05:15:46.553Z,1017.41
2019-02-12T05:16:46.546Z,1017.41
2019-02-12T05:17:46.537Z,1017.40
2019-02-12T05:18:46.576Z,1017.42
2019-02-12T05:19:46.516Z,1017.47
2019-02-12T05:20:46.501Z,1017.46
2019-02-12T05:21:46.491Z,1017.49
2019-02-12T05:22:46.487Z,1017.43
2019-02-12T05:23:46.469Z,1017.64
2019-02-12T05:24:46.491Z,1017.42
2019-02-12T05:25:46.453Z,1017.47
2019-02-12T05:26:46.440Z,1017.40
2019-02-12T05:27:46.434Z,1017.53
2019-02-12T05:28:46.423Z,1017.39
2019-02-12T05:29:46.439Z,1017.35
2019-02-12T05:30:46.401Z,1017.37
2019-02-12T05:31:46.388Z,1017.38
2019-02-12T05:32:46.371Z,1017.42
2019-02-12T05:33:46.365Z,1017.40
2019-02-12T05:34:46.354Z,1017.43
2019-02-12T05:35:46.361Z,1017.39
2019-02-12T05:36:46.335Z,1017.46
2019-02-12T05:37:46.326Z,1017.43
2019-02-12T05:38:46.319Z,1017.43
2019-02-12T05:39:46.307Z,1017.41
2019-02-12T05:40:46.321Z,1017.64
2019-02-12T05:41:46.278Z,1017.47
2019-02-12T05:42:46.274Z,1017.52
2019-02-12T05:43:46.261Z,1017.40
2019-02-12T05:44:46.245Z,1017.57
2019-02-12T05:45:46.261Z,1017.55
2019-02-12T05:46:46.227Z,1017.58
2019-02-12T05:47:46.213Z,1017.52
2019-02-12T05:48:46.210Z,1017.60
2019-02-12T05:49:46.201Z,1017.66
2019-02-12T05:50:46.209Z,1017.65
2019-02-12T05:51:46.178Z,1017.69
2019-02-12T05:52:54.055Z,1017.75
2019-02-12T05:53:47.149Z,1017.85
2019-02-12T05:54:46.150Z,1017.88
2019-02-12T05:55:46.172Z,1017.91
2019-02-12T05:56:46.126Z,1017.92
2019-02-12T05:57:46.113Z,1018.04
2019-02-12T05:58:46.096Z,1018.01
2019-02-12T05:59:47.108Z,1018.01
2019-02-12T06:00:46.085Z,1018.07
2019-02-12T06:01:46.097Z,1018.09
2019-02-12T06:02:46.067Z,1018.16
2019-02-12T06:03:46.051Z,1018.13
2019-02-12T06:04:46.035Z,1018.20
2019-02-12T06:05:46.057Z,1018.21
2019-02-12T06:06:46.013Z,1018.23
2019-02-12T06:07:46.003Z,1018.22
2019-02-12T06:08:45.999Z,1018.23
2019-02-12T06:09:45.987Z,1018.25
2019-02-12T06:10:45.976Z,1018.34
2019-02-12T06:11:45.992Z,1018.38
2019-02-12T06:12:45.954Z,1018.44
2019-02-12T06:13:45.938Z,1018.43
2019-02-12T06:14:45.936Z,1018.44
2019-02-12T06:15:45.922Z,1018.50
2019-02-12T06:16:45.935Z,1018.58
2019-02-12T06:17:45.915Z,1018.56
2019-02-12T06:18:45.890Z,1018.53
2019-02-12T06:19:45.873Z,1018.58
2019-02-12T06:20:45.878Z,1018.62
2019-02-12T06:21:45.857Z,1018.65
2019-02-12T06:22:45.887Z,1018.65
2019-02-12T06:23:45.839Z,1018.67
2019-02-12T06:24:45.824Z,1018.64
2019-02-12T06:25:45.812Z,1018.65
2019-02-12T06:26:45.805Z,1018.63
2019-02-12T06:27:45.790Z,1018.63
2019-02-12T06:28:45.825Z,1018.65
2019-02-12T06:29:45.778Z,1018.66
2019-02-12T06:30:45.764Z,1018.78
2019-02-12T06:31:45.752Z,1018.74
2019-02-12T06:32:45.742Z,1018.72
2019-02-12T06:33:45.759Z,1018.79
2019-02-12T06:34:45.722Z,1018.88
2019-02-12T06:35:45.713Z,1018.85
2019-02-12T06:36:45.694Z,1018.85
2019-02-12T06:37:45.688Z,1018.94
2019-02-12T06:38:45.707Z,1018.97
2019-02-12T06:39:45.664Z,1018.98
2019-02-12T06:40:45.661Z,1019.01
2019-02-12T06:41:45.653Z,1018.99
2019-02-12T06:42:45.642Z,1018.98
2019-02-12T06:43:45.658Z,1019.05
2019-02-12T06:44:45.611Z,1019.04
2019-02-12T06:45:45.607Z,1019.08
2019-02-12T06:46:45.599Z,1019.10
2019-02-12T06:47:45.591Z,1019.15
2019-02-12T06:48:45.584Z,1019.16
2019-02-12T06:49:45.587Z,1019.18
2019-02-12T06:50:45.547Z,1019.14
2019-02-12T06:51:45.538Z,1019.19
2019-02-12T06:52:45.536Z,1019.17
2019-02-12T06:53:45.520Z,1019.17
2019-02-12T06:54:45.514Z,1019.13
2019-02-12T06:55:45.522Z,1019.11
2019-02-12T06:56:45.485Z,1019.15
2019-02-12T06:57:45.477Z,1019.17
2019-02-12T06:58:45.461Z,1019.19
2019-02-12T06:59:45.454Z,1019.23
2019-02-12T07:00:45.473Z,1019.25
2019-02-12T07:01:45.435Z,1019.19
2019-02-12T07:02:45.419Z,1019.22
2019-02-12T07:03:45.418Z,1019.22
2019-02-12T07:04:45.408Z,1019.24
2019-02-12T07:05:45.423Z,1019.21
2019-02-12T07:06:45.384Z,1019.22
2019-02-12T07:07:45.421Z,1019.31
2019-02-12T07:08:45.356Z,1019.36
2019-02-12T07:09:45.346Z,1019.36
2019-02-12T07:10:45.335Z,1019.36
2019-02-12T07:11:45.356Z,1019.49
2019-02-12T07:12:45.322Z,1019.52
2019-02-12T07:13:45.313Z,1019.52
2019-02-12T07:14:45.297Z,1019.56
2019-02-12T07:15:45.289Z,1019.56
2019-02-12T07:16:45.307Z,1019.61
2019-02-12T07:17:45.261Z,1019.57
2019-02-12T07:18:45.270Z,1019.68
2019-02-12T07:19:45.246Z,1019.62
2019-02-12T07:20:45.232Z,1019.52
2019-02-12T07:21:45.218Z,1019.65
2019-02-12T07:22:45.237Z,1019.68
2019-02-12T07:23:45.197Z,1019.64
2019-02-12T07:24:45.191Z,1019.62
2019-02-12T07:25:45.194Z,1019.66
2019-02-12T07:26:45.174Z,1019.65
2019-02-12T07:27:45.163Z,1019.63
2019-02-12T07:28:45.175Z,1019.69
2019-02-12T07:29:45.133Z,1019.72
2019-02-12T07:30:45.127Z,1019.75
2019-02-12T07:31:45.117Z,1019.63
2019-02-12T07:32:45.131Z,1019.73
2019-02-12T07:33:45.097Z,1019.70
2019-02-12T07:34:45.083Z,1019.73
2019-02-12T07:35:45.069Z,1019.74
2019-02-12T07:36:45.087Z,1019.79
2019-02-12T07:37:45.091Z,1019.76
2019-02-12T07:38:45.046Z,1019.82
2019-02-12T07:39:45.034Z,1019.86
2019-02-12T07:40:45.058Z,1019.85
2019-02-12T07:41:45.007Z,1019.85
2019-02-12T07:42:44.998Z,1019.86
2019-02-12T07:43:45.027Z,1019.96
2019-02-12T07:44:44.984Z,1019.99
2019-02-12T07:45:44.971Z,1019.98
2019-02-12T07:46:44.959Z,1019.97
2019-02-12T07:47:44.951Z,1019.97
2019-02-12T07:48:45.334Z,1019.93
2019-02-12T07:49:44.959Z,1020.00
2019-02-12T07:50:44.917Z,1020.00
2019-02-12T07:51:44.907Z,1020.02
2019-02-12T07:52:44.898Z,1020.13
2019-02-12T07:53:44.878Z,1020.09
2019-02-12T07:54:44.890Z,1020.06
2019-02-12T07:55:44.883Z,1020.18
2019-02-12T07:56:44.855Z,1020.09
2019-02-12T07:57:44.844Z,1020.09
2019-02-12T07:58:44.841Z,1020.10
2019-02-12T07:59:44.846Z,1020.09
2019-02-12T08:00:44.836Z,1020.08
2019-02-12T08:01:44.811Z,1020.09
2019-02-12T08:02:44.784Z,1020.11
2019-02-12T08:03:44.774Z,1020.13
2019-02-12T08:04:44.774Z,1020.12
2019-02-12T08:05:44.802Z,1020.14
2019-02-12T08:06:44.826Z,1020.11
2019-02-12T08:07:44.732Z,1020.15
2019-02-12T08:08:44.732Z,1020.15
2019-02-12T08:09:44.722Z,1020.16
2019-02-12T08:10:44.711Z,1020.12
2019-02-12T08:11:44.731Z,1020.08
2019-02-12T08:12:44.734Z,1020.14
2019-02-12T08:13:44.671Z,1020.15
2019-02-12T08:14:44.693Z,1020.17
2019-02-12T08:15:44.650Z,1020.26
2019-02-12T08:16:44.668Z,1020.22
2019-02-12T08:17:44.659Z,1020.23
2019-02-12T08:18:44.625Z,1020.20
2019-02-12T08:19:44.614Z,1020.27
2019-02-12T08:20:44.594Z,1020.23
2019-02-12T08:21:44.591Z,1020.33
2019-02-12T08:22:44.609Z,1020.33
2019-02-12T08:23:44.568Z,1020.36
2019-02-12T08:24:44.554Z,1020.36
2019-02-12T08:25:44.541Z,1020.34
2019-02-12T08:26:44.585Z,1020.41
2019-02-12T08:27:44.562Z,1020.44
2019-02-12T08:28:44.519Z,1020.41
2019-02-12T08:29:44.591Z,1020.42
2019-02-12T08:30:44.506Z,1020.41
2019-02-12T08:31:44.485Z,1020.41
2019-02-12T08:32:44.468Z,1020.51
2019-02-12T08:33:44.479Z,1020.42
2019-02-12T08:34:45.002Z,1020.49
2019-02-12T08:35:44.437Z,1020.51
2019-02-12T08:36:44.430Z,1020.48
2019-02-12T08:37:44.453Z,1020.49
2019-02-12T08:38:44.408Z,1020.52
2019-02-12T08:39:44.508Z,1020.56
2019-02-12T08:40:44.560Z,1020.58
2019-02-12T08:41:44.379Z,1020.56
2019-02-12T08:42:44.373Z,1020.57
2019-02-12T08:43:44.385Z,1020.63
2019-02-12T08:44:44.363Z,1020.60
2019-02-12T08:45:44.348Z,1020.63
2019-02-12T08:46:44.325Z,1020.61
2019-02-12T08:47:44.312Z,1020.70
2019-02-12T08:48:44.344Z,1020.76
2019-02-12T08:49:44.295Z,1020.71
2019-02-12T08:50:44.286Z,1020.76
2019-02-12T08:51:44.275Z,1020.77
2019-02-12T08:52:44.256Z,1020.83
2019-02-12T08:53:50.336Z,1020.96
2019-02-12T08:54:45.360Z,1020.97
2019-02-12T08:55:44.231Z,1020.93
2019-02-12T08:56:44.794Z,1020.92
2019-02-12T08:57:44.201Z,1020.73
2019-02-12T08:58:44.197Z,1020.78
2019-02-12T08:59:44.182Z,1020.79
2019-02-12T09:00:44.202Z,1020.91
2019-02-12T09:01:44.321Z,1021.00
2019-02-12T09:02:44.157Z,1020.95
2019-02-12T09:03:44.151Z,1021.04
2019-02-12T09:04:44.142Z,1020.99
2019-02-12T09:05:44.142Z,1021.11
2019-02-12T09:06:44.115Z,1021.16
2019-02-12T09:07:44.096Z,1021.22
2019-02-12T09:08:44.091Z,1021.11
2019-02-12T09:09:44.080Z,1021.17
2019-02-12T09:10:44.101Z,1020.98
2019-02-12T09:11:44.054Z,1020.87
2019-02-12T09:12:44.052Z,1020.84
2019-02-12T09:13:44.038Z,1020.97
2019-02-12T09:14:44.032Z,1020.93
2019-02-12T09:15:44.020Z,1020.98
2019-02-12T09:16:44.040Z,1020.91
2019-02-12T09:17:43.991Z,1021.17
2019-02-12T09:18:43.977Z,1021.20
2019-02-12T09:19:43.969Z,1021.17
2019-02-12T09:20:44.298Z,1021.21
2019-02-12T09:21:44.171Z,1021.05
2019-02-12T09:22:44.273Z,1021.13
2019-02-12T09:23:44.317Z,1020.98
2019-02-12T09:24:44.140Z,1021.13
2019-02-12T09:25:44.081Z,1021.07
2019-02-12T09:26:44.011Z,1021.10
2019-02-12T09:27:44.069Z,1021.25
2019-02-12T09:28:44.203Z,1021.03
2019-02-12T09:29:43.952Z,1021.02
2019-02-12T09:30:44.015Z,1021.11
2019-02-12T09:31:43.837Z,1021.24
2019-02-12T09:32:43.847Z,1021.09
2019-02-12T09:33:43.844Z,1021.14
2019-02-12T09:34:43.813Z,1021.09
2019-02-12T09:35:43.801Z,1021.10
2019-02-12T09:36:43.782Z,1021.16
2019-02-12T09:37:43.775Z,1021.30
2019-02-12T09:38:43.798Z,1021.31
2019-02-12T09:39:43.756Z,1021.41
2019-02-12T09:40:43.753Z,1021.33
2019-02-12T09:41:43.734Z,1021.38
2019-02-12T09:42:43.720Z,1021.35
2019-02-12T09:43:43.707Z,1021.53
2019-02-12T09:44:43.724Z,1021.48
2019-02-12T09:45:43.695Z,1021.51
2019-02-12T09:46:43.687Z,1021.53
2019-02-12T09:47:43.674Z,1021.50
2019-02-12T09:48:43.678Z,1021.51
2019-02-12T09:49:43.679Z,1021.54
2019-02-12T09:50:43.631Z,1021.70
2019-02-12T09:51:43.625Z,1021.62
2019-02-12T09:52:43.620Z,1021.62
2019-02-12T09:53:43.730Z,1021.62
2019-02-12T09:54:43.598Z,1021.64
2019-02-12T09:55:43.608Z,1021.75
2019-02-12T09:56:43.601Z,1021.66
2019-02-12T09:57:43.559Z,1021.66
2019-02-12T09:58:43.590Z,1021.64
2019-02-12T09:59:43.583Z,1021.74
2019-02-12T10:00:43.555Z,1021.75
2019-02-12T10:01:43.515Z,1021.77
2019-02-12T10:02:43.504Z,1021.79
2019-02-12T10:03:43.493Z,1021.71
2019-02-12T10:04:43.489Z,1021.79
2019-02-12T10:05:43.477Z,1021.77
2019-02-12T10:06:43.572Z,1022.12
2019-02-12T10:07:43.574Z,1022.07
2019-02-12T10:08:43.442Z,1022.05
2019-02-12T10:09:43.430Z,1022.04
2019-02-12T10:10:45.422Z,1021.90
2019-02-12T10:11:43.434Z,1021.70
2019-02-12T10:12:43.405Z,1021.90
2019-02-12T10:13:43.397Z,1021.90
2019-02-12T10:14:43.378Z,1021.87
2019-02-12T10:15:43.367Z,1021.89
2019-02-12T10:16:43.398Z,1022.01
2019-02-12T10:17:43.349Z,1022.01
2019-02-12T10:18:43.339Z,1022.01
2019-02-12T10:19:43.328Z,1022.07
2019-02-12T10:20:43.309Z,1022.00
2019-02-12T10:21:43.315Z,1021.84
2019-02-12T10:22:43.331Z,1021.90
2019-02-12T10:23:43.281Z,1021.89
2019-02-12T10:24:43.288Z,1021.92
2019-02-12T10:25:43.324Z,1021.93
2019-02-12T10:26:43.257Z,1021.89
2019-02-12T10:27:43.261Z,1021.97
2019-02-12T10:28:48.770Z,1022.04
2019-02-12T10:29:44.303Z,1021.99
2019-02-12T10:30:43.238Z,1022.04
2019-02-12T10:31:43.197Z,1022.00
2019-02-12T10:32:43.214Z,1022.04
2019-02-12T10:33:43.193Z,1022.12
2019-02-12T10:34:43.198Z,1022.07
2019-02-12T10:35:43.151Z,1022.07
2019-02-12T10:36:43.143Z,1022.08
2019-02-12T10:37:43.157Z,1022.05
2019-02-12T10:38:43.137Z,1022.05
2019-02-12T10:39:43.139Z,1022.06
2019-02-12T10:40:43.123Z,1022.07
2019-02-12T10:41:43.107Z,1021.96
2019-02-12T10:42:43.080Z,1022.03
2019-02-12T10:43:43.193Z,1022.03
2019-02-12T10:44:43.105Z,1022.09
2019-02-12T10:45:43.042Z,1022.04
2019-02-12T10:46:43.088Z,1022.00
2019-02-12T10:47:43.029Z,1021.98
2019-02-12T10:48:43.196Z,1022.03
2019-02-12T10:49:43.044Z,1021.99
2019-02-12T10:50:42.987Z,1022.08
2019-02-12T10:51:42.995Z,1022.06
2019-02-12T10:52:42.974Z,1022.01
2019-02-12T10:53:42.963Z,1022.09
2019-02-12T10:54:42.997Z,1022.14
2019-02-12T10:55:42.999Z,1022.09
2019-02-12T10:56:42.938Z,1022.14
2019-02-12T10:57:42.912Z,1022.09
2019-02-12T10:58:42.963Z,1022.10
2019-02-12T10:59:42.902Z,1022.10
2019-02-12T11:00:42.910Z,1022.06
2019-02-12T11:01:42.875Z,1022.06
2019-02-12T11:02:42.859Z,1022.12
2019-02-12T11:03:42.848Z,1022.10
2019-02-12T11:04:42.843Z,1022.10
2019-02-12T11:05:42.869Z,1022.11
2019-02-12T11:06:42.825Z,1022.06
2019-02-12T11:07:43.247Z,1022.07
2019-02-12T11:08:42.860Z,1022.07
2019-02-12T11:09:43.016Z,1022.04
2019-02-12T11:10:42.891Z,1022.05
2019-02-12T11:11:43.624Z,1022.08
2019-02-12T11:12:43.152Z,1022.06
2019-02-12T11:13:42.942Z,1022.04
2019-02-12T11:14:43.474Z,1022.02
2019-02-12T11:15:42.814Z,1022.03
2019-02-12T11:16:42.786Z,1022.03
2019-02-12T11:17:42.892Z,1022.04
2019-02-12T11:18:42.747Z,1022.10
2019-02-12T11:19:42.743Z,1022.09
2019-02-12T11:20:42.808Z,1022.08
2019-02-12T11:21:42.754Z,1022.11
2019-02-12T11:22:42.924Z,1022.11
2019-02-12T11:23:42.676Z,1022.08
2019-02-12T11:24:42.657Z,1022.01
2019-02-12T11:25:42.680Z,1022.20
2019-02-12T11:26:42.636Z,1022.18
2019-02-12T11:27:42.652Z,1022.16
2019-02-12T11:28:42.590Z,1022.20
2019-02-12T11:29:42.580Z,1022.11
2019-02-12T11:30:42.571Z,1022.20
2019-02-12T11:31:42.558Z,1022.25
2019-02-12T11:32:42.613Z,1022.21
2019-02-12T11:33:42.539Z,1022.24
2019-02-12T11:34:42.541Z,1022.24
2019-02-12T11:35:42.595Z,1022.20
2019-02-12T11:36:42.584Z,1022.20
2019-02-12T11:37:42.500Z,1022.22
2019-02-12T11:38:42.510Z,1022.23
2019-02-12T11:39:42.473Z,1022.25
2019-02-12T11:40:42.726Z,1022.26
2019-02-12T11:41:42.450Z,1022.35
2019-02-12T11:42:42.442Z,1022.26
2019-02-12T11:43:42.759Z,1022.24
2019-02-12T11:44:42.575Z,1022.32
2019-02-12T11:45:42.595Z,1022.28
2019-02-12T11:46:42.443Z,1022.20
2019-02-12T11:47:42.416Z,1022.31
2019-02-12T11:48:42.376Z,1022.29
2019-02-12T11:49:42.476Z,1022.31
2019-02-12T11:50:42.397Z,1022.25
2019-02-12T11:51:42.455Z,1022.32
2019-02-12T11:52:42.332Z,1022.34
2019-02-12T11:53:42.319Z,1022.25
2019-02-12T11:54:43.834Z,1022.21
2019-02-12T11:55:42.384Z,1022.25
2019-02-12T11:56:42.298Z,1022.28
2019-02-12T11:57:42.348Z,1022.25
2019-02-12T11:58:42.275Z,1022.31
2019-02-12T11:59:42.264Z,1022.31
2019-02-12T12:00:42.269Z,1022.27
2019-02-12T12:01:42.235Z,1022.36
2019-02-12T12:02:42.328Z,1022.33
2019-02-12T12:03:42.318Z,1022.37
2019-02-12T12:04:42.208Z,1022.44
2019-02-12T12:05:42.241Z,1022.41